createdAt,value
2016-10-02T00:00:40.137Z,0
2016-10-02T00:01:40.143Z,0
2016-10-02T00:02:40.154Z,0
2016-10-02T00:03:40.164Z,0
2016-10-02T00:04:40.169Z,0
2016-10-02T00:05:40.169Z,0
2016-10-02T00:06:40.176Z,0
2016-10-02T00:07:40.226Z,0
2016-10-02T00:08:40.235Z,0
2016-10-02T00:09:40.303Z,0
2016-10-02T00:10:40.202Z,0
2016-10-02T00:11:40.205Z,0
2016-10-02T00:12:40.250Z,0
2016-10-02T00:13:40.252Z,0
2016-10-02T00:14:40.277Z,0
2016-10-02T00:15:40.300Z,0
2016-10-02T00:16:40.335Z,0
2016-10-02T00:17:40.341Z,0
2016-10-02T00:18:40.388Z,0
2016-10-02T00:19:40.391Z,0
2016-10-02T00:20:46.702Z,0
2016-10-02T00:21:40.457Z,0
2016-10-02T00:22:40.463Z,0
2016-10-02T00:23:40.501Z,0
2016-10-02T00:24:40.511Z,0
2016-10-02T00:25:40.531Z,0
2016-10-02T00:26:40.561Z,0
2016-10-02T00:27:40.574Z,0
2016-10-02T00:28:40.596Z,0
2016-10-02T00:29:40.613Z,0
2016-10-02T00:30:40.637Z,0
2016-10-02T00:31:40.656Z,0
2016-10-02T00:32:40.678Z,0
2016-10-02T00:33:40.699Z,0
2016-10-02T00:34:40.733Z,0
2016-10-02T00:35:40.741Z,0
2016-10-02T00:36:40.759Z,0
2016-10-02T00:37:40.783Z,0
2016-10-02T00:38:40.808Z,0
2016-10-02T00:39:40.841Z,0
2016-10-02T00:40:40.854Z,0
2016-10-02T00:41:40.873Z,0
2016-10-02T00:42:40.890Z,0
2016-10-02T00:43:40.918Z,0
2016-10-02T00:44:40.941Z,0
2016-10-02T00:45:40.965Z,0
2016-10-02T00:46:40.979Z,0
2016-10-02T00:47:41.007Z,0
2016-10-02T00:48:41.019Z,0
2016-10-02T00:49:41.039Z,0
2016-10-02T00:50:41.072Z,0
2016-10-02T00:51:41.064Z,0
2016-10-02T00:52:41.107Z,0
2016-10-02T00:53:41.108Z,0
2016-10-02T00:54:41.144Z,0
2016-10-02T00:55:41.164Z,0
2016-10-02T00:56:41.189Z,0
2016-10-02T00:57:41.216Z,0
2016-10-02T00:58:41.539Z,0
2016-10-02T00:59:41.244Z,0
2016-10-02T01:00:41.256Z,0
2016-10-02T01:01:41.284Z,0
2016-10-02T01:02:41.307Z,0
2016-10-02T01:03:41.324Z,0
2016-10-02T01:04:41.362Z,0
2016-10-02T01:05:41.385Z,0
2016-10-02T01:06:41.397Z,0
2016-10-02T01:07:41.404Z,0
2016-10-02T01:08:41.439Z,0
2016-10-02T01:09:41.461Z,0
2016-10-02T01:10:41.509Z,0
2016-10-02T01:11:41.493Z,0
2016-10-02T01:12:41.515Z,0
2016-10-02T01:13:41.538Z,0
2016-10-02T01:14:41.558Z,0
2016-10-02T01:15:41.574Z,0
2016-10-02T01:16:41.600Z,0
2016-10-02T01:17:41.612Z,0
2016-10-02T01:18:41.641Z,0
2016-10-02T01:19:41.651Z,0
2016-10-02T01:20:41.676Z,0
2016-10-02T01:21:41.710Z,0
2016-10-02T01:22:41.728Z,0
2016-10-02T01:23:41.739Z,0
2016-10-02T01:24:41.881Z,0
2016-10-02T01:25:42.029Z,0
2016-10-02T01:26:42.024Z,0
2016-10-02T01:27:42.035Z,0
2016-10-02T01:28:42.047Z,0
2016-10-02T01:29:42.053Z,0
2016-10-02T01:30:42.055Z,0
2016-10-02T01:31:42.065Z,0
2016-10-02T01:32:42.070Z,0
2016-10-02T01:33:42.082Z,0
2016-10-02T01:34:42.096Z,0
2016-10-02T01:35:42.092Z,0
2016-10-02T01:36:42.103Z,0
2016-10-02T01:37:42.240Z,0
2016-10-02T01:38:42.161Z,0
2016-10-02T01:39:42.157Z,0
2016-10-02T01:40:42.207Z,0
2016-10-02T01:41:42.221Z,0
2016-10-02T01:42:42.230Z,0
2016-10-02T01:43:42.230Z,0
2016-10-02T01:44:42.260Z,0
2016-10-02T01:45:42.270Z,0
2016-10-02T01:46:42.281Z,0
2016-10-02T01:47:42.290Z,0
2016-10-02T01:48:42.286Z,0
2016-10-02T01:49:42.288Z,0
2016-10-02T01:50:42.293Z,0
2016-10-02T01:51:42.330Z,0
2016-10-02T01:52:42.348Z,0
2016-10-02T01:53:42.365Z,0
2016-10-02T01:54:42.379Z,0
2016-10-02T01:55:42.408Z,0
2016-10-02T01:56:42.427Z,0
2016-10-02T01:57:42.440Z,0
2016-10-02T01:58:42.782Z,0
2016-10-02T01:59:42.489Z,0
2016-10-02T02:00:42.515Z,0
2016-10-02T02:01:42.531Z,0
2016-10-02T02:02:42.545Z,0
2016-10-02T02:03:42.668Z,0
2016-10-02T02:04:42.626Z,0
2016-10-02T02:05:42.619Z,0
2016-10-02T02:06:42.639Z,0
2016-10-02T02:07:42.668Z,0
2016-10-02T02:08:42.668Z,0
2016-10-02T02:09:42.711Z,0
2016-10-02T02:10:42.732Z,0
2016-10-02T02:11:42.740Z,0
2016-10-02T02:12:42.771Z,0
2016-10-02T02:13:42.895Z,0
2016-10-02T02:14:42.827Z,0
2016-10-02T02:15:42.812Z,0
2016-10-02T02:16:43.174Z,0
2016-10-02T02:17:42.866Z,0
2016-10-02T02:18:42.883Z,0
2016-10-02T02:19:42.921Z,0
2016-10-02T02:20:42.918Z,0
2016-10-02T02:21:42.946Z,0
2016-10-02T02:22:42.954Z,0
2016-10-02T02:23:42.989Z,0
2016-10-02T02:24:42.995Z,0
2016-10-02T02:25:43.031Z,0
2016-10-02T02:26:43.058Z,0
2016-10-02T02:27:43.068Z,0
2016-10-02T02:28:43.106Z,0
2016-10-02T02:29:43.110Z,0
2016-10-02T02:30:43.207Z,0
2016-10-02T02:31:43.141Z,0
2016-10-02T02:32:43.163Z,0
2016-10-02T02:33:43.190Z,0
2016-10-02T02:34:43.221Z,0
2016-10-02T02:35:43.231Z,0
2016-10-02T02:36:43.247Z,0
2016-10-02T02:37:43.267Z,0
2016-10-02T02:38:43.286Z,0
2016-10-02T02:39:43.321Z,0
2016-10-02T02:40:43.349Z,0
2016-10-02T02:41:43.349Z,0
2016-10-02T02:42:43.382Z,0
2016-10-02T02:43:43.397Z,0
2016-10-02T02:44:43.488Z,0
2016-10-02T02:45:43.433Z,0
2016-10-02T02:46:43.465Z,0
2016-10-02T02:47:43.475Z,0
2016-10-02T02:48:43.498Z,0
2016-10-02T02:49:43.517Z,0
2016-10-02T02:50:43.543Z,0
2016-10-02T02:51:43.552Z,0
2016-10-02T02:52:43.580Z,0
2016-10-02T02:53:43.668Z,0
2016-10-02T02:54:43.617Z,0
2016-10-02T02:55:43.648Z,0
2016-10-02T02:56:43.998Z,0
2016-10-02T02:57:43.683Z,0
2016-10-02T02:58:43.697Z,0
2016-10-02T02:59:44.040Z,0
2016-10-02T03:00:43.736Z,0
2016-10-02T03:01:43.958Z,0
2016-10-02T03:02:43.898Z,0
2016-10-02T03:03:43.911Z,0
2016-10-02T03:04:44.059Z,0
2016-10-02T03:05:43.929Z,0
2016-10-02T03:06:43.942Z,0
2016-10-02T03:07:44.065Z,0
2016-10-02T03:08:44.211Z,0
2016-10-02T03:09:44.079Z,0
2016-10-02T03:10:44.080Z,0
2016-10-02T03:11:44.089Z,0
2016-10-02T03:12:44.120Z,0
2016-10-02T03:13:44.235Z,0
2016-10-02T03:14:44.243Z,0
2016-10-02T03:15:44.258Z,0
2016-10-02T03:16:44.255Z,0
2016-10-02T03:17:44.272Z,0
2016-10-02T03:18:44.353Z,0
2016-10-02T03:19:44.277Z,0
2016-10-02T03:20:44.226Z,0
2016-10-02T03:21:44.248Z,0
2016-10-02T03:22:44.280Z,0
2016-10-02T03:23:44.315Z,0
2016-10-02T03:24:44.288Z,0
2016-10-02T03:25:44.291Z,0
2016-10-02T03:26:44.327Z,0
2016-10-02T03:27:44.309Z,0
2016-10-02T03:28:44.730Z,0
2016-10-02T03:29:44.328Z,0
2016-10-02T03:30:44.385Z,0
2016-10-02T03:31:44.381Z,0
2016-10-02T03:32:44.395Z,0
2016-10-02T03:33:44.411Z,0
2016-10-02T03:34:44.435Z,0
2016-10-02T03:35:44.776Z,0
2016-10-02T03:36:44.474Z,0
2016-10-02T03:37:44.500Z,0
2016-10-02T03:38:44.519Z,0
2016-10-02T03:39:44.547Z,0
2016-10-02T03:40:44.552Z,0
2016-10-02T03:41:44.577Z,0
2016-10-02T03:42:44.597Z,0
2016-10-02T03:43:44.681Z,0
2016-10-02T03:44:44.652Z,0
2016-10-02T03:45:44.682Z,0
2016-10-02T03:46:44.995Z,0
2016-10-02T03:47:44.705Z,0
2016-10-02T03:48:44.721Z,0
2016-10-02T03:49:44.746Z,0
2016-10-02T03:50:44.755Z,0
2016-10-02T03:51:44.778Z,0
2016-10-02T03:52:44.807Z,0
2016-10-02T03:53:44.818Z,0
2016-10-02T03:54:44.837Z,0
2016-10-02T03:55:44.849Z,0
2016-10-02T03:56:44.889Z,0
2016-10-02T03:57:44.901Z,0
2016-10-02T03:58:44.922Z,0
2016-10-02T03:59:44.941Z,0
2016-10-02T04:00:44.962Z,0
2016-10-02T04:01:44.981Z,0
2016-10-02T04:02:44.993Z,0
2016-10-02T04:03:45.021Z,0
2016-10-02T04:04:45.041Z,0
2016-10-02T04:05:45.063Z,0
2016-10-02T04:06:45.083Z,0
2016-10-02T04:07:45.094Z,0
2016-10-02T04:08:45.129Z,0
2016-10-02T04:09:45.137Z,0
2016-10-02T04:10:45.169Z,0
2016-10-02T04:11:45.197Z,0
2016-10-02T04:12:45.206Z,0
2016-10-02T04:13:45.226Z,0
2016-10-02T04:14:45.250Z,0
2016-10-02T04:15:45.255Z,0
2016-10-02T04:16:45.284Z,0
2016-10-02T04:17:45.319Z,0
2016-10-02T04:18:45.328Z,0
2016-10-02T04:19:45.343Z,0
2016-10-02T04:20:45.362Z,0
2016-10-02T04:21:45.380Z,0
2016-10-02T04:22:45.412Z,0
2016-10-02T04:23:45.424Z,0
2016-10-02T04:24:45.450Z,0
2016-10-02T04:25:45.464Z,0
2016-10-02T04:26:45.484Z,0
2016-10-02T04:27:45.504Z,0
2016-10-02T04:28:45.520Z,0
2016-10-02T04:29:45.543Z,0
2016-10-02T04:30:45.557Z,0
2016-10-02T04:31:45.574Z,0
2016-10-02T04:32:45.596Z,0
2016-10-02T04:33:45.617Z,0
2016-10-02T04:34:45.656Z,0
2016-10-02T04:35:45.664Z,0
2016-10-02T04:36:45.683Z,0
2016-10-02T04:37:45.705Z,0
2016-10-02T04:38:45.726Z,0
2016-10-02T04:39:45.742Z,0
2016-10-02T04:40:45.759Z,0
2016-10-02T04:41:45.783Z,0
2016-10-02T04:42:45.970Z,0
2016-10-02T04:43:45.823Z,0
2016-10-02T04:44:45.852Z,0
2016-10-02T04:45:45.863Z,0
2016-10-02T04:46:45.879Z,0
2016-10-02T04:47:45.910Z,0
2016-10-02T04:48:45.916Z,0
2016-10-02T04:49:45.932Z,0
2016-10-02T04:50:45.958Z,0
2016-10-02T04:51:45.977Z,0
2016-10-02T04:52:46.004Z,0
2016-10-02T04:53:46.021Z,0
2016-10-02T04:54:46.039Z,0
2016-10-02T04:55:46.076Z,4
2016-10-02T04:56:46.074Z,4
2016-10-02T04:57:46.108Z,4
2016-10-02T04:58:46.118Z,4
2016-10-02T04:59:46.150Z,4
2016-10-02T05:00:46.180Z,4
2016-10-02T05:01:46.169Z,8
2016-10-02T05:02:46.205Z,4
2016-10-02T05:03:46.210Z,8
2016-10-02T05:04:46.252Z,8
2016-10-02T05:05:46.259Z,8
2016-10-02T05:06:46.283Z,12
2016-10-02T05:07:46.310Z,8
2016-10-02T05:08:46.312Z,12
2016-10-02T05:09:46.332Z,16
2016-10-02T05:10:46.371Z,16
2016-10-02T05:11:46.382Z,20
2016-10-02T05:12:46.400Z,20
2016-10-02T05:13:46.737Z,20
2016-10-02T05:14:46.435Z,24
2016-10-02T05:15:46.450Z,24
2016-10-02T05:16:46.801Z,28
2016-10-02T05:17:46.509Z,32
2016-10-02T05:18:46.516Z,32
2016-10-02T05:19:46.537Z,36
2016-10-02T05:20:46.560Z,40
2016-10-02T05:21:46.583Z,40
2016-10-02T05:22:46.596Z,44
2016-10-02T05:23:46.613Z,48
2016-10-02T05:24:46.638Z,48
2016-10-02T05:25:46.650Z,56
2016-10-02T05:26:46.673Z,60
2016-10-02T05:27:46.693Z,60
2016-10-02T05:28:46.709Z,68
2016-10-02T05:29:46.736Z,72
2016-10-02T05:30:46.749Z,76
2016-10-02T05:31:46.777Z,76
2016-10-02T05:32:46.791Z,84
2016-10-02T05:33:46.825Z,84
2016-10-02T05:34:46.830Z,88
2016-10-02T05:35:46.841Z,92
2016-10-02T05:36:46.875Z,100
2016-10-02T05:37:46.886Z,104
2016-10-02T05:38:46.909Z,108
2016-10-02T05:39:46.940Z,112
2016-10-02T05:40:46.953Z,116
2016-10-02T05:41:46.967Z,116
2016-10-02T05:42:46.980Z,120
2016-10-02T05:43:47.001Z,124
2016-10-02T05:44:47.021Z,124
2016-10-02T05:45:47.054Z,128
2016-10-02T05:46:47.060Z,132
2016-10-02T05:47:47.090Z,132
2016-10-02T05:48:47.113Z,136
2016-10-02T05:49:47.114Z,140
2016-10-02T05:50:47.149Z,140
2016-10-02T05:51:47.172Z,144
2016-10-02T05:52:47.181Z,148
2016-10-02T05:53:47.211Z,148
2016-10-02T05:54:47.347Z,152
2016-10-02T05:55:47.355Z,152
2016-10-02T05:56:47.363Z,156
2016-10-02T05:57:47.372Z,156
2016-10-02T05:58:47.409Z,160
2016-10-02T05:59:47.405Z,164
2016-10-02T06:00:47.448Z,164
2016-10-02T06:01:47.457Z,168
2016-10-02T06:02:47.465Z,172
2016-10-02T06:03:47.493Z,176
2016-10-02T06:04:47.501Z,176
2016-10-02T06:05:47.508Z,184
2016-10-02T06:06:47.516Z,208
2016-10-02T06:07:47.526Z,184
2016-10-02T06:08:47.526Z,184
2016-10-02T06:09:47.607Z,184
2016-10-02T06:10:47.541Z,184
2016-10-02T06:11:47.555Z,188
2016-10-02T06:12:47.674Z,188
2016-10-02T06:13:47.599Z,196
2016-10-02T06:14:47.610Z,200
2016-10-02T06:15:47.640Z,196
2016-10-02T06:16:47.651Z,200
2016-10-02T06:17:47.687Z,232
2016-10-02T06:18:47.687Z,212
2016-10-02T06:19:48.029Z,204
2016-10-02T06:20:47.727Z,200
2016-10-02T06:21:47.755Z,200
2016-10-02T06:22:47.772Z,200
2016-10-02T06:23:47.788Z,204
2016-10-02T06:24:47.814Z,204
2016-10-02T06:25:47.828Z,204
2016-10-02T06:26:47.855Z,208
2016-10-02T06:27:47.866Z,208
2016-10-02T06:28:47.885Z,212
2016-10-02T06:29:47.909Z,212
2016-10-02T06:30:47.924Z,220
2016-10-02T06:31:47.943Z,228
2016-10-02T06:32:48.301Z,264
2016-10-02T06:33:47.991Z,336
2016-10-02T06:34:48.018Z,392
2016-10-02T06:35:48.031Z,408
2016-10-02T06:36:48.041Z,412
2016-10-02T06:37:48.066Z,352
2016-10-02T06:38:48.079Z,300
2016-10-02T06:39:48.101Z,292
2016-10-02T06:40:48.122Z,264
2016-10-02T06:41:48.152Z,260
2016-10-02T06:42:48.157Z,268
2016-10-02T06:43:48.197Z,264
2016-10-02T06:44:48.207Z,244
2016-10-02T06:45:48.222Z,232
2016-10-02T06:46:48.246Z,252
2016-10-02T06:47:48.265Z,260
2016-10-02T06:48:48.286Z,256
2016-10-02T06:49:48.309Z,280
2016-10-02T06:50:48.325Z,332
2016-10-02T06:51:48.351Z,308
2016-10-02T06:52:48.359Z,296
2016-10-02T06:53:48.380Z,280
2016-10-02T06:54:48.404Z,264
2016-10-02T06:55:48.420Z,260
2016-10-02T06:56:48.448Z,276
2016-10-02T06:57:48.452Z,276
2016-10-02T06:58:48.482Z,280
2016-10-02T06:59:48.502Z,284
2016-10-02T07:00:48.517Z,348
2016-10-02T07:01:48.528Z,532
2016-10-02T07:02:48.566Z,648
2016-10-02T07:03:48.581Z,652
2016-10-02T07:04:48.603Z,576
2016-10-02T07:05:48.613Z,472
2016-10-02T07:06:48.659Z,424
2016-10-02T07:07:48.657Z,348
2016-10-02T07:08:48.681Z,268
2016-10-02T07:09:48.697Z,268
2016-10-02T07:10:48.719Z,292
2016-10-02T07:11:48.737Z,356
2016-10-02T07:12:48.757Z,500
2016-10-02T07:13:48.774Z,484
2016-10-02T07:14:48.811Z,436
2016-10-02T07:15:48.819Z,500
2016-10-02T07:16:48.864Z,448
2016-10-02T07:17:48.861Z,420
2016-10-02T07:18:48.884Z,476
2016-10-02T07:19:48.896Z,476
2016-10-02T07:20:48.913Z,428
2016-10-02T07:21:48.942Z,348
2016-10-02T07:22:49.360Z,372
2016-10-02T07:23:48.975Z,388
2016-10-02T07:24:49.004Z,316
2016-10-02T07:25:49.023Z,328
2016-10-02T07:26:49.043Z,320
2016-10-02T07:27:49.073Z,284
2016-10-02T07:28:49.078Z,272
2016-10-02T07:29:49.409Z,260
2016-10-02T07:30:49.126Z,304
2016-10-02T07:31:49.153Z,372
2016-10-02T07:32:49.276Z,448
2016-10-02T07:33:49.300Z,700
2016-10-02T07:34:49.291Z,796
2016-10-02T07:35:49.320Z,588
2016-10-02T07:36:49.327Z,572
2016-10-02T07:37:49.645Z,528
2016-10-02T07:38:49.498Z,552
2016-10-02T07:39:49.427Z,668
2016-10-02T07:40:49.332Z,584
2016-10-02T07:41:49.355Z,528
2016-10-02T07:42:49.371Z,460
2016-10-02T07:43:49.391Z,492
2016-10-02T07:44:49.424Z,492
2016-10-02T07:45:49.433Z,544
2016-10-02T07:46:49.550Z,688
2016-10-02T07:47:49.554Z,728
2016-10-02T07:48:49.489Z,884
2016-10-02T07:49:49.510Z,896
2016-10-02T07:50:49.534Z,872
2016-10-02T07:51:49.544Z,944
2016-10-02T07:52:49.567Z,980
2016-10-02T07:53:49.618Z,944
2016-10-02T07:54:49.728Z,944
2016-10-02T07:55:49.730Z,972
2016-10-02T07:56:49.648Z,736
2016-10-02T07:57:49.685Z,700
2016-10-02T07:58:49.690Z,704
2016-10-02T07:59:49.800Z,872
2016-10-02T08:00:49.766Z,976
2016-10-02T08:01:49.873Z,864
2016-10-02T08:02:49.778Z,632
2016-10-02T08:03:50.293Z,624
2016-10-02T08:04:49.820Z,764
2016-10-02T08:05:49.833Z,956
2016-10-02T08:06:50.180Z,892
2016-10-02T08:07:49.886Z,588
2016-10-02T08:08:49.904Z,568
2016-10-02T08:09:49.922Z,576
2016-10-02T08:10:49.943Z,572
2016-10-02T08:11:49.976Z,992
2016-10-02T08:12:50.006Z,1000
2016-10-02T08:13:50.067Z,1092
2016-10-02T08:14:50.023Z,1116
2016-10-02T08:15:50.399Z,692
2016-10-02T08:16:50.167Z,584
2016-10-02T08:17:50.092Z,780
2016-10-02T08:18:50.220Z,1084
2016-10-02T08:19:50.212Z,764
2016-10-02T08:20:50.144Z,668
2016-10-02T08:21:50.181Z,640
2016-10-02T08:22:50.188Z,792
2016-10-02T08:23:50.211Z,924
2016-10-02T08:24:50.238Z,784
2016-10-02T08:25:50.258Z,796
2016-10-02T08:26:50.269Z,768
2016-10-02T08:27:50.298Z,540
2016-10-02T08:28:50.323Z,568
2016-10-02T08:29:50.341Z,736
2016-10-02T08:30:50.581Z,980
2016-10-02T08:31:50.395Z,1280
2016-10-02T08:32:50.609Z,1460
2016-10-02T08:33:50.607Z,1476
2016-10-02T08:34:50.461Z,1648
2016-10-02T08:35:50.464Z,1780
2016-10-02T08:36:50.501Z,1628
2016-10-02T08:37:50.509Z,1564
2016-10-02T08:38:50.525Z,1284
2016-10-02T08:39:50.561Z,1316
2016-10-02T08:40:50.587Z,1444
2016-10-02T08:41:50.591Z,1440
2016-10-02T08:42:50.623Z,1072
2016-10-02T08:43:50.637Z,404
2016-10-02T08:44:50.767Z,360
2016-10-02T08:45:50.688Z,452
2016-10-02T08:46:50.703Z,636
2016-10-02T08:47:50.718Z,576
2016-10-02T08:48:50.741Z,456
2016-10-02T08:49:51.163Z,400
2016-10-02T08:50:50.788Z,368
2016-10-02T08:51:50.934Z,344
2016-10-02T08:52:50.834Z,360
2016-10-02T08:53:50.956Z,364
2016-10-02T08:54:50.867Z,368
2016-10-02T08:55:50.886Z,408
2016-10-02T08:56:50.908Z,432
2016-10-02T08:57:50.937Z,432
2016-10-02T08:58:50.947Z,544
2016-10-02T08:59:50.969Z,664
2016-10-02T09:00:50.996Z,904
2016-10-02T09:01:51.015Z,828
2016-10-02T09:02:51.047Z,620
2016-10-02T09:03:51.059Z,344
2016-10-02T09:04:51.086Z,328
2016-10-02T09:05:51.114Z,364
2016-10-02T09:06:51.139Z,372
2016-10-02T09:07:51.155Z,444
2016-10-02T09:08:51.165Z,368
2016-10-02T09:09:51.184Z,376
2016-10-02T09:10:51.219Z,380
2016-10-02T09:11:51.239Z,376
2016-10-02T09:12:51.255Z,380
2016-10-02T09:13:51.644Z,384
2016-10-02T09:14:51.298Z,380
2016-10-02T09:15:51.318Z,384
2016-10-02T09:16:51.337Z,404
2016-10-02T09:17:51.374Z,844
2016-10-02T09:18:51.387Z,424
2016-10-02T09:19:51.414Z,392
2016-10-02T09:20:51.431Z,396
2016-10-02T09:21:51.447Z,412
2016-10-02T09:22:51.466Z,412
2016-10-02T09:23:51.505Z,416
2016-10-02T09:24:51.616Z,416
2016-10-02T09:25:51.535Z,416
2016-10-02T09:26:51.550Z,428
2016-10-02T09:27:51.589Z,440
2016-10-02T09:28:51.617Z,516
2016-10-02T09:29:51.625Z,436
2016-10-02T09:30:51.642Z,444
2016-10-02T09:31:51.939Z,432
2016-10-02T09:32:51.684Z,444
2016-10-02T09:33:51.707Z,584
2016-10-02T09:34:51.733Z,480
2016-10-02T09:35:51.749Z,524
2016-10-02T09:36:51.771Z,476
2016-10-02T09:37:51.802Z,420
2016-10-02T09:38:51.815Z,448
2016-10-02T09:39:51.850Z,444
2016-10-02T09:40:51.866Z,492
2016-10-02T09:41:51.881Z,496
2016-10-02T09:42:51.918Z,396
2016-10-02T09:43:51.930Z,484
2016-10-02T09:44:51.947Z,496
2016-10-02T09:45:51.979Z,512
2016-10-02T09:46:51.990Z,580
2016-10-02T09:47:52.016Z,812
2016-10-02T09:48:52.049Z,1316
2016-10-02T09:49:52.065Z,1032
2016-10-02T09:50:52.078Z,1376
2016-10-02T09:51:52.119Z,1200
2016-10-02T09:52:52.127Z,1968
2016-10-02T09:53:52.146Z,1856
2016-10-02T09:54:52.176Z,792
2016-10-02T09:55:52.189Z,700
2016-10-02T09:56:52.220Z,644
2016-10-02T09:57:52.230Z,572
2016-10-02T09:58:52.260Z,580
2016-10-02T09:59:52.289Z,584
2016-10-02T10:00:52.300Z,588
2016-10-02T10:01:52.330Z,592
2016-10-02T10:02:52.351Z,600
2016-10-02T10:03:52.368Z,608
2016-10-02T10:04:52.386Z,620
2016-10-02T10:05:52.425Z,636
2016-10-02T10:06:52.437Z,700
2016-10-02T10:07:52.461Z,1052
2016-10-02T10:08:52.482Z,1036
2016-10-02T10:09:52.502Z,712
2016-10-02T10:10:52.537Z,764
2016-10-02T10:11:52.544Z,1400
2016-10-02T10:12:52.572Z,1488
2016-10-02T10:13:52.592Z,1432
2016-10-02T10:14:52.627Z,1864
2016-10-02T10:15:52.651Z,2128
2016-10-02T10:16:52.668Z,2544
2016-10-02T10:17:52.687Z,2288
2016-10-02T10:18:52.699Z,2588
2016-10-02T10:19:52.735Z,2768
2016-10-02T10:20:52.756Z,2772
2016-10-02T10:21:52.779Z,2756
2016-10-02T10:22:52.809Z,2612
2016-10-02T10:23:52.826Z,2512
2016-10-02T10:24:52.859Z,2640
2016-10-02T10:25:53.318Z,2480
2016-10-02T10:26:52.903Z,2544
2016-10-02T10:27:52.918Z,2664
2016-10-02T10:28:53.312Z,2752
2016-10-02T10:29:53.077Z,2884
2016-10-02T10:30:53.083Z,3100
2016-10-02T10:31:53.121Z,3116
2016-10-02T10:32:53.252Z,2956
2016-10-02T10:33:53.263Z,2744
2016-10-02T10:34:53.279Z,2848
2016-10-02T10:35:53.285Z,2668
2016-10-02T10:36:53.282Z,2524
2016-10-02T10:37:53.293Z,3224
2016-10-02T10:38:53.303Z,2844
2016-10-02T10:39:53.309Z,2564
2016-10-02T10:40:53.321Z,2000
2016-10-02T10:41:53.360Z,2196
2016-10-02T10:42:53.368Z,2508
2016-10-02T10:43:53.376Z,2864
2016-10-02T10:44:53.383Z,2988
2016-10-02T10:45:53.422Z,2840
2016-10-02T10:46:53.440Z,2684
2016-10-02T10:47:53.668Z,2596
2016-10-02T10:48:53.484Z,2236
2016-10-02T10:49:53.485Z,2192
2016-10-02T10:50:53.490Z,2304
2016-10-02T10:51:53.499Z,2024
2016-10-02T10:52:53.504Z,2124
2016-10-02T10:53:53.528Z,1880
2016-10-02T10:54:53.559Z,2832
2016-10-02T10:55:53.585Z,1728
2016-10-02T10:56:53.612Z,1388
2016-10-02T10:57:53.626Z,1600
2016-10-02T10:58:53.654Z,1528
2016-10-02T10:59:53.676Z,1060
2016-10-02T11:00:53.704Z,580
2016-10-02T11:01:53.720Z,844
2016-10-02T11:02:53.991Z,760
2016-10-02T11:03:54.093Z,856
2016-10-02T11:04:53.794Z,844
2016-10-02T11:05:53.815Z,840
2016-10-02T11:06:53.839Z,840
2016-10-02T11:07:53.863Z,832
2016-10-02T11:08:53.901Z,844
2016-10-02T11:09:53.920Z,832
2016-10-02T11:10:53.962Z,832
2016-10-02T11:11:53.968Z,836
2016-10-02T11:12:53.982Z,852
2016-10-02T11:13:54.019Z,856
2016-10-02T11:14:54.040Z,936
2016-10-02T11:15:54.074Z,848
2016-10-02T11:16:54.095Z,832
2016-10-02T11:17:54.113Z,848
2016-10-02T11:18:54.130Z,832
2016-10-02T11:19:54.156Z,836
2016-10-02T11:20:54.185Z,436
2016-10-02T11:21:54.219Z,840
2016-10-02T11:22:54.229Z,636
2016-10-02T11:23:54.253Z,492
2016-10-02T11:24:54.282Z,1048
2016-10-02T11:25:54.334Z,1536
2016-10-02T11:26:54.336Z,1608
2016-10-02T11:27:54.362Z,996
2016-10-02T11:28:54.378Z,1588
2016-10-02T11:29:54.404Z,952
2016-10-02T11:30:54.432Z,856
2016-10-02T11:31:54.459Z,844
2016-10-02T11:32:54.469Z,640
2016-10-02T11:33:54.502Z,584
2016-10-02T11:34:54.530Z,680
2016-10-02T11:35:54.902Z,976
2016-10-02T11:36:54.578Z,1340
2016-10-02T11:37:54.609Z,1576
2016-10-02T11:38:54.621Z,1960
2016-10-02T11:39:54.653Z,1804
2016-10-02T11:40:54.672Z,1940
2016-10-02T11:41:54.694Z,2216
2016-10-02T11:42:54.733Z,2008
2016-10-02T11:43:54.758Z,1448
2016-10-02T11:44:54.778Z,1280
2016-10-02T11:45:54.802Z,1200
2016-10-02T11:46:54.820Z,1156
2016-10-02T11:47:54.847Z,1232
2016-10-02T11:48:54.871Z,1456
2016-10-02T11:49:54.911Z,1052
2016-10-02T11:50:54.933Z,1256
2016-10-02T11:51:55.357Z,1052
2016-10-02T11:52:55.001Z,1000
2016-10-02T11:53:55.000Z,1128
2016-10-02T11:54:55.144Z,1512
2016-10-02T11:55:55.139Z,1188
2016-10-02T11:56:55.150Z,804
2016-10-02T11:57:55.282Z,628
2016-10-02T11:58:55.291Z,492
2016-10-02T11:59:55.297Z,492
2016-10-02T12:00:55.296Z,436
2016-10-02T12:01:55.309Z,380
2016-10-02T12:02:55.324Z,404
2016-10-02T12:03:55.329Z,504
2016-10-02T12:04:55.465Z,584
2016-10-02T12:05:55.472Z,704
2016-10-02T12:06:55.491Z,748
2016-10-02T12:07:55.486Z,776
2016-10-02T12:08:55.511Z,572
2016-10-02T12:09:55.499Z,524
2016-10-02T12:10:55.475Z,496
2016-10-02T12:11:55.497Z,500
2016-10-02T12:12:55.497Z,480
2016-10-02T12:13:55.491Z,480
2016-10-02T12:14:55.510Z,516
2016-10-02T12:15:55.538Z,528
2016-10-02T12:16:55.554Z,504
2016-10-02T12:17:55.590Z,508
2016-10-02T12:18:55.616Z,628
2016-10-02T12:19:55.639Z,648
2016-10-02T12:20:55.664Z,660
2016-10-02T12:21:55.678Z,624
2016-10-02T12:22:55.710Z,604
2016-10-02T12:23:55.732Z,596
2016-10-02T12:24:55.777Z,600
2016-10-02T12:25:55.795Z,588
2016-10-02T12:26:55.812Z,612
2016-10-02T12:27:55.857Z,632
2016-10-02T12:28:55.888Z,584
2016-10-02T12:29:55.887Z,540
2016-10-02T12:30:55.897Z,528
2016-10-02T12:31:55.947Z,544
2016-10-02T12:32:55.969Z,568
2016-10-02T12:33:56.312Z,596
2016-10-02T12:34:56.012Z,620
2016-10-02T12:35:56.042Z,640
2016-10-02T12:36:56.060Z,660
2016-10-02T12:37:56.087Z,672
2016-10-02T12:38:56.105Z,732
2016-10-02T12:39:56.131Z,896
2016-10-02T12:40:56.170Z,976
2016-10-02T12:41:56.187Z,1076
2016-10-02T12:42:56.213Z,1284
2016-10-02T12:43:56.236Z,1700
2016-10-02T12:44:56.251Z,1972
2016-10-02T12:45:56.290Z,1832
2016-10-02T12:46:56.308Z,1928
2016-10-02T12:47:56.324Z,2328
2016-10-02T12:48:56.352Z,2208
2016-10-02T12:49:56.401Z,1920
2016-10-02T12:50:56.412Z,1932
2016-10-02T12:51:56.444Z,2004
2016-10-02T12:52:56.454Z,2112
2016-10-02T12:53:56.485Z,2184
2016-10-02T12:54:56.506Z,1968
2016-10-02T12:55:56.536Z,2056
2016-10-02T12:56:56.564Z,1764
2016-10-02T12:57:56.592Z,1356
2016-10-02T12:58:56.615Z,988
2016-10-02T12:59:56.637Z,1088
2016-10-02T13:00:56.651Z,1292
2016-10-02T13:01:56.681Z,1436
2016-10-02T13:02:56.713Z,1708
2016-10-02T13:03:56.724Z,1592
2016-10-02T13:04:56.758Z,1312
2016-10-02T13:05:56.782Z,1460
2016-10-02T13:06:56.808Z,1952
2016-10-02T13:07:56.830Z,2152
2016-10-02T13:08:56.863Z,2136
2016-10-02T13:09:57.277Z,2236
2016-10-02T13:10:56.949Z,1916
2016-10-02T13:11:56.949Z,1916
2016-10-02T13:12:56.961Z,1840
2016-10-02T13:13:56.995Z,1744
2016-10-02T13:14:57.313Z,1728
2016-10-02T13:15:57.070Z,1912
2016-10-02T13:16:57.061Z,2448
2016-10-02T13:17:57.192Z,2296
2016-10-02T13:18:57.199Z,1988
2016-10-02T13:19:57.257Z,1592
2016-10-02T13:20:57.396Z,1212
2016-10-02T13:21:57.416Z,1172
2016-10-02T13:22:57.407Z,812
2016-10-02T13:23:57.544Z,724
2016-10-02T13:24:57.422Z,720
2016-10-02T13:25:57.423Z,716
2016-10-02T13:26:57.478Z,636
2016-10-02T13:27:57.806Z,624
2016-10-02T13:28:57.607Z,600
2016-10-02T13:29:57.501Z,608
2016-10-02T13:30:57.505Z,596
2016-10-02T13:31:57.516Z,608
2016-10-02T13:32:57.549Z,644
2016-10-02T13:33:57.580Z,716
2016-10-02T13:34:57.625Z,696
2016-10-02T13:35:57.601Z,624
2016-10-02T13:36:57.601Z,592
2016-10-02T13:37:57.629Z,612
2016-10-02T13:38:57.672Z,644
2016-10-02T13:39:57.633Z,604
2016-10-02T13:40:57.663Z,612
2016-10-02T13:41:57.675Z,624
2016-10-02T13:42:57.719Z,668
2016-10-02T13:43:58.057Z,820
2016-10-02T13:44:57.760Z,964
2016-10-02T13:45:57.783Z,1068
2016-10-02T13:46:57.824Z,952
2016-10-02T13:47:58.157Z,904
2016-10-02T13:48:57.868Z,952
2016-10-02T13:49:57.898Z,868
2016-10-02T13:50:57.920Z,724
2016-10-02T13:51:57.934Z,900
2016-10-02T13:52:57.960Z,1192
2016-10-02T13:53:57.992Z,1456
2016-10-02T13:54:58.039Z,1124
2016-10-02T13:55:58.044Z,1136
2016-10-02T13:56:58.070Z,1288
2016-10-02T13:57:58.098Z,1124
2016-10-02T13:58:58.121Z,1088
2016-10-02T13:59:58.149Z,1732
2016-10-02T14:00:58.175Z,1784
2016-10-02T14:01:58.203Z,1540
2016-10-02T14:02:58.218Z,1108
2016-10-02T14:03:58.238Z,1320